createdAt,value
2019-03-26T00:00:27.552Z,86.69
2019-03-26T00:02:56.381Z,85.70
2019-03-26T00:05:24.683Z,85.63
2019-03-26T00:07:53.493Z,84.36
2019-03-26T00:10:21.869Z,85.93
2019-03-26T00:12:50.134Z,85.41
2019-03-26T00:15:18.370Z,85.16
2019-03-26T00:17:47.040Z,86.12
2019-03-26T00:20:15.505Z,85.58
2019-03-26T00:22:43.817Z,85.76
2019-03-26T00:25:12.462Z,85.07
2019-03-26T00:27:40.761Z,85.52
2019-03-26T00:30:09.431Z,86.33
2019-03-26T00:32:37.828Z,86.73
2019-03-26T00:35:06.280Z,86.55
2019-03-26T00:37:34.708Z,85.59
2019-03-26T00:40:03.366Z,85.89
2019-03-26T00:42:33.464Z,85.84
2019-03-26T00:45:01.809Z,85.82
2019-03-26T00:47:30.212Z,84.72
2019-03-26T00:49:58.468Z,83.99
2019-03-26T00:52:26.793Z,83.84
2019-03-26T00:54:55.016Z,83.85
2019-03-26T00:57:23.335Z,84.66
2019-03-26T00:59:51.638Z,85.46
2019-03-26T01:02:20.047Z,85.47
2019-03-26T01:04:48.470Z,85.29
2019-03-26T01:07:16.843Z,85.70
2019-03-26T01:09:45.327Z,86.43
2019-03-26T01:12:14.369Z,87.13
2019-03-26T01:14:42.615Z,86.31
2019-03-26T01:17:11.220Z,86.22
2019-03-26T01:19:41.250Z,86.67
2019-03-26T01:22:09.642Z,87.52
2019-03-26T01:24:37.890Z,87.98
2019-03-26T01:27:06.599Z,87.53
2019-03-26T01:29:34.941Z,86.83
2019-03-26T01:32:03.389Z,85.57
2019-03-26T01:34:31.632Z,85.77
2019-03-26T01:36:59.952Z,85.46
2019-03-26T01:39:28.210Z,86.13
2019-03-26T01:41:56.515Z,86.40
2019-03-26T01:44:24.812Z,86.64
2019-03-26T01:46:53.100Z,85.93
2019-03-26T01:49:21.385Z,85.22
2019-03-26T01:51:49.672Z,85.46
2019-03-26T01:54:17.937Z,85.66
2019-03-26T01:56:49.511Z,85.80
2019-03-26T01:59:17.901Z,85.20
2019-03-26T02:01:46.210Z,85.52
2019-03-26T02:04:14.496Z,85.45
2019-03-26T02:06:46.240Z,86.10
2019-03-26T02:09:14.513Z,86.08
2019-03-26T02:11:42.828Z,86.28
2019-03-26T02:14:11.183Z,86.17
2019-03-26T02:16:39.462Z,85.70
2019-03-26T02:19:07.768Z,85.61
2019-03-26T02:21:36.164Z,85.77
2019-03-26T02:24:04.758Z,85.46
2019-03-26T02:26:33.117Z,85.91
2019-03-26T02:29:01.528Z,85.41
2019-03-26T02:31:29.791Z,85.29
2019-03-26T02:33:58.116Z,84.74
2019-03-26T02:36:26.453Z,84.19
2019-03-26T02:38:54.784Z,83.91
2019-03-26T02:41:23.165Z,83.89
2019-03-26T02:43:51.432Z,84.60
2019-03-26T02:46:19.712Z,84.55
2019-03-26T02:48:48.694Z,85.11
2019-03-26T02:51:16.980Z,85.70
2019-03-26T02:53:45.371Z,84.88
2019-03-26T02:56:13.708Z,85.33
2019-03-26T02:58:42.040Z,84.92
2019-03-26T03:01:10.406Z,84.85
2019-03-26T03:03:38.671Z,84.65
2019-03-26T03:06:07.299Z,85.76
2019-03-26T03:08:35.631Z,85.32
2019-03-26T03:11:04.433Z,84.50
2019-03-26T03:13:32.691Z,85.35
2019-03-26T03:16:01.952Z,85.12
2019-03-26T03:18:30.204Z,84.53
2019-03-26T03:20:58.566Z,84.57
2019-03-26T03:23:27.047Z,84.44
2019-03-26T03:25:55.767Z,84.47
2019-03-26T03:28:24.164Z,84.31
2019-03-26T03:30:53.356Z,84.12
2019-03-26T03:33:21.729Z,83.67
2019-03-26T03:35:52.723Z,84.69
2019-03-26T03:38:20.358Z,85.73
2019-03-26T03:40:48.894Z,85.21
2019-03-26T03:43:17.885Z,84.41
2019-03-26T03:45:46.990Z,84.10
2019-03-26T03:48:15.849Z,84.53
2019-03-26T03:50:44.825Z,84.22
2019-03-26T03:53:16.296Z,84.28
2019-03-26T03:55:46.211Z,83.82
2019-03-26T03:58:15.302Z,83.37
2019-03-26T04:00:43.695Z,82.99
2019-03-26T04:03:12.221Z,83.19
2019-03-26T04:05:40.753Z,83.34
2019-03-26T04:08:09.362Z,83.77
2019-03-26T04:10:37.830Z,84.36
2019-03-26T04:13:06.368Z,84.73
2019-03-26T04:15:35.445Z,84.93
2019-03-26T04:18:04.027Z,85.04
2019-03-26T04:20:33.407Z,84.99
2019-03-26T04:23:01.748Z,84.93
2019-03-26T04:25:30.198Z,85.17
2019-03-26T04:27:58.725Z,84.53
2019-03-26T04:30:33.675Z,84.08
2019-03-26T04:33:02.114Z,84.33
2019-03-26T04:35:30.795Z,84.56
2019-03-26T04:37:59.641Z,84.22
2019-03-26T04:40:28.648Z,83.96
2019-03-26T04:42:57.120Z,83.40
2019-03-26T04:45:25.567Z,82.95
2019-03-26T04:47:53.825Z,82.77
2019-03-26T04:50:22.276Z,82.51
2019-03-26T04:52:50.580Z,82.23
2019-03-26T04:55:18.877Z,81.81
2019-03-26T04:57:47.120Z,81.43
2019-03-26T05:00:15.918Z,81.28
2019-03-26T05:02:44.378Z,81.10
2019-03-26T05:05:12.897Z,80.91
2019-03-26T05:07:41.252Z,81.13
2019-03-26T05:10:13.278Z,81.11
2019-03-26T05:12:42.190Z,81.20
2019-03-26T05:15:12.029Z,81.12
2019-03-26T05:17:40.405Z,81.13
2019-03-26T05:20:09.361Z,81.10
2019-03-26T05:22:37.689Z,80.92
2019-03-26T05:25:07.371Z,80.71
2019-03-26T05:27:45.281Z,80.56
2019-03-26T05:30:07.077Z,80.50
2019-03-26T05:32:35.446Z,80.65
2019-03-26T05:35:03.962Z,80.53
2019-03-26T05:37:32.217Z,80.58
2019-03-26T05:40:00.596Z,80.48
2019-03-26T05:42:29.541Z,80.25
2019-03-26T05:44:57.822Z,80.29
2019-03-26T05:47:26.234Z,80.17
2019-03-26T05:49:54.550Z,80.06
2019-03-26T05:52:22.794Z,79.99
2019-03-26T05:54:51.090Z,80.22
2019-03-26T05:57:19.312Z,80.11
2019-03-26T05:59:47.653Z,80.41
2019-03-26T06:02:17.996Z,80.27
2019-03-26T06:04:46.160Z,80.71
2019-03-26T06:07:14.606Z,80.06
2019-03-26T06:09:43.064Z,80.00
2019-03-26T06:12:11.330Z,79.83
2019-03-26T06:14:39.644Z,79.43
2019-03-26T06:17:07.874Z,79.15
2019-03-26T06:19:36.292Z,79.13
2019-03-26T06:22:04.526Z,78.87
2019-03-26T06:24:32.902Z,79.32
2019-03-26T06:27:01.395Z,78.85
2019-03-26T06:29:29.676Z,78.81
2019-03-26T06:31:58.023Z,78.75
2019-03-26T06:34:26.535Z,78.90
2019-03-26T06:37:03.655Z,78.37
2019-03-26T06:39:31.937Z,78.54
2019-03-26T06:42:00.300Z,78.02
2019-03-26T06:44:28.576Z,77.01
2019-03-26T06:46:56.799Z,76.47
2019-03-26T06:49:25.120Z,76.20
2019-03-26T06:51:53.344Z,76.58
2019-03-26T06:54:21.617Z,76.82
2019-03-26T06:56:49.857Z,77.14
2019-03-26T06:59:18.160Z,76.90
2019-03-26T07:01:46.803Z,76.67
2019-03-26T07:04:15.114Z,77.16
2019-03-26T07:06:43.387Z,76.53
2019-03-26T07:09:11.671Z,76.58
2019-03-26T07:11:39.982Z,75.92
2019-03-26T07:14:08.252Z,76.20
2019-03-26T07:16:36.601Z,76.51
2019-03-26T07:19:04.861Z,76.36
2019-03-26T07:21:33.167Z,76.22
2019-03-26T07:24:01.669Z,75.44
2019-03-26T07:26:30.122Z,75.12
2019-03-26T07:28:58.388Z,74.49
2019-03-26T07:31:26.691Z,74.96
2019-03-26T07:33:54.950Z,74.88
2019-03-26T07:36:23.229Z,74.41
2019-03-26T07:38:55.182Z,74.63
2019-03-26T07:41:23.486Z,74.39
2019-03-26T07:43:51.741Z,74.83
2019-03-26T07:46:20.067Z,75.59
2019-03-26T07:48:48.494Z,75.58
2019-03-26T07:51:16.781Z,75.24
2019-03-26T07:53:44.990Z,74.93
2019-03-26T07:56:15.105Z,75.36
2019-03-26T07:58:43.313Z,74.40
2019-03-26T08:01:11.610Z,74.86
2019-03-26T08:03:39.822Z,74.18
2019-03-26T08:06:08.110Z,73.96
2019-03-26T08:08:36.388Z,73.53
2019-03-26T08:11:04.747Z,73.12
2019-03-26T08:13:33.665Z,72.79
2019-03-26T08:16:01.962Z,72.37
2019-03-26T08:18:30.180Z,71.50
2019-03-26T08:20:58.469Z,71.80
2019-03-26T08:23:26.709Z,70.63
2019-03-26T08:25:55.118Z,70.19
2019-03-26T08:28:23.331Z,70.87
2019-03-26T08:30:51.646Z,70.71
2019-03-26T08:33:19.914Z,70.97
2019-03-26T08:35:48.231Z,70.41
2019-03-26T08:38:16.474Z,69.74
2019-03-26T08:40:45.678Z,70.30
2019-03-26T08:43:13.926Z,70.04
2019-03-26T08:45:42.304Z,69.01
2019-03-26T08:48:10.833Z,67.98
2019-03-26T08:50:39.249Z,68.50
2019-03-26T08:53:07.572Z,68.26
2019-03-26T08:55:35.888Z,67.25
2019-03-26T08:58:04.259Z,66.17
2019-03-26T09:00:32.779Z,67.13
2019-03-26T09:03:01.039Z,66.25
2019-03-26T09:05:29.349Z,66.18
2019-03-26T09:07:57.630Z,66.80
2019-03-26T09:10:25.889Z,66.15
2019-03-26T09:12:54.292Z,66.41
2019-03-26T09:15:22.576Z,65.96
2019-03-26T09:17:51.000Z,65.23
2019-03-26T09:20:19.397Z,65.19
2019-03-26T09:22:47.930Z,66.30
2019-03-26T09:25:16.324Z,65.57
2019-03-26T09:27:44.829Z,64.93
2019-03-26T09:30:15.400Z,65.19
2019-03-26T09:32:44.210Z,65.19
2019-03-26T09:35:12.932Z,65.16
2019-03-26T09:37:41.286Z,63.68
2019-03-26T09:40:12.307Z,64.28
2019-03-26T09:42:40.918Z,63.71
2019-03-26T09:45:10.345Z,62.46
2019-03-26T09:47:38.726Z,62.66
2019-03-26T09:50:10.615Z,62.21
2019-03-26T09:52:42.356Z,62.29
2019-03-26T09:55:10.822Z,61.62
2019-03-26T09:57:39.326Z,62.18
2019-03-26T10:00:08.469Z,62.16
2019-03-26T10:02:36.869Z,62.54
2019-03-26T10:05:07.162Z,63.13
2019-03-26T10:07:35.560Z,63.68
2019-03-26T10:10:05.172Z,63.29
2019-03-26T10:12:33.834Z,61.99
2019-03-26T10:15:07.730Z,61.52
2019-03-26T10:17:36.570Z,61.72
2019-03-26T10:20:05.480Z,61.67
2019-03-26T10:22:34.290Z,61.12
2019-03-26T10:25:02.759Z,60.01
2019-03-26T10:27:31.178Z,60.89
2019-03-26T10:29:59.438Z,61.08
2019-03-26T10:32:27.723Z,60.28
2019-03-26T10:34:56.099Z,60.34
2019-03-26T10:37:24.771Z,60.00
2019-03-26T10:39:53.157Z,60.71
2019-03-26T10:42:21.481Z,61.35
2019-03-26T10:44:50.236Z,60.73
2019-03-26T10:47:18.536Z,60.47
2019-03-26T10:49:46.785Z,61.12
2019-03-26T10:52:15.078Z,59.69
2019-03-26T10:54:43.463Z,59.42
2019-03-26T10:57:11.851Z,59.73
2019-03-26T10:59:40.216Z,60.09
2019-03-26T11:02:08.934Z,59.55
2019-03-26T11:04:37.166Z,59.61
2019-03-26T11:07:05.557Z,60.28
2019-03-26T11:09:34.399Z,60.71
2019-03-26T11:12:02.819Z,60.64
2019-03-26T11:14:32.355Z,60.80
2019-03-26T11:17:11.603Z,61.16
2019-03-26T11:19:40.042Z,61.51
2019-03-26T11:22:08.691Z,62.97
2019-03-26T11:24:37.063Z,63.35
2019-03-26T11:27:05.463Z,63.72
2019-03-26T11:29:33.762Z,63.83
2019-03-26T11:32:01.983Z,63.99
2019-03-26T11:34:30.263Z,63.86
2019-03-26T11:36:58.526Z,62.27
2019-03-26T11:39:32.679Z,61.74
2019-03-26T11:41:56.952Z,60.26
2019-03-26T11:44:25.347Z,59.71
2019-03-26T11:46:53.751Z,60.61
2019-03-26T11:49:22.067Z,61.79
2019-03-26T11:51:50.321Z,62.14
2019-03-26T11:54:18.740Z,63.11
2019-03-26T11:56:47.391Z,63.66
2019-03-26T11:59:15.757Z,63.83
2019-03-26T12:01:43.990Z,64.25
2019-03-26T12:04:12.307Z,62.37
2019-03-26T12:06:40.535Z,63.16
2019-03-26T12:09:09.025Z,63.59
2019-03-26T12:11:38.135Z,62.75
2019-03-26T12:14:07.412Z,62.17
2019-03-26T12:16:35.690Z,63.55
2019-03-26T12:19:06.297Z,63.08
2019-03-26T12:21:34.690Z,63.16
2019-03-26T12:24:03.283Z,63.50
2019-03-26T12:26:31.737Z,63.90
2019-03-26T12:29:00.160Z,63.75
2019-03-26T12:31:28.816Z,63.38
2019-03-26T12:33:57.210Z,63.48
2019-03-26T12:36:39.161Z,64.24
2019-03-26T12:38:55.679Z,63.91
2019-03-26T12:41:23.956Z,63.44
2019-03-26T12:43:52.697Z,64.02
2019-03-26T12:46:21.149Z,63.12
2019-03-26T12:48:49.427Z,63.54
2019-03-26T12:51:17.719Z,63.42
2019-03-26T12:53:46.012Z,62.36
2019-03-26T12:56:14.853Z,62.98
2019-03-26T12:58:43.246Z,61.95
2019-03-26T13:01:11.574Z,62.11
2019-03-26T13:03:39.917Z,61.73
2019-03-26T13:06:08.176Z,61.68
2019-03-26T13:08:37.234Z,61.40
2019-03-26T13:11:05.737Z,60.42
2019-03-26T13:13:34.131Z,60.59
2019-03-26T13:16:02.517Z,59.79
2019-03-26T13:18:30.768Z,59.09
2019-03-26T13:21:01.283Z,59.56
2019-03-26T13:23:30.155Z,59.87
2019-03-26T13:25:58.570Z,60.12
2019-03-26T13:28:26.819Z,60.04
2019-03-26T13:30:55.089Z,59.50
2019-03-26T13:33:23.346Z,59.77
2019-03-26T13:35:52.342Z,59.16
2019-03-26T13:38:20.617Z,59.29
2019-03-26T13:40:49.084Z,58.33
2019-03-26T13:43:19.344Z,58.03
2019-03-26T13:45:47.858Z,58.63
2019-03-26T13:48:16.145Z,57.88
2019-03-26T13:50:44.576Z,58.79
2019-03-26T13:53:12.926Z,58.61
2019-03-26T13:55:41.359Z,58.72
2019-03-26T13:58:09.596Z,58.47
2019-03-26T14:00:39.500Z,59.13
2019-03-26T14:03:08.542Z,58.41
2019-03-26T14:05:36.942Z,59.15
2019-03-26T14:08:05.336Z,59.47
2019-03-26T14:10:40.708Z,60.34
2019-03-26T14:13:04.533Z,60.49
2019-03-26T14:15:33.456Z,60.45
2019-03-26T14:18:02.586Z,60.74
2019-03-26T14:20:30.905Z,60.14
2019-03-26T14:23:03.306Z,59.75
2019-03-26T14:25:31.698Z,59.71
2019-03-26T14:28:00.542Z,59.75
2019-03-26T14:30:41.839Z,59.54
2019-03-26T14:33:10.299Z,58.92
2019-03-26T14:35:40.572Z,58.75
2019-03-26T14:38:09.038Z,59.25
2019-03-26T14:40:37.540Z,57.79
2019-03-26T14:43:06.383Z,57.53
2019-03-26T14:45:34.811Z,57.10
2019-03-26T14:48:03.451Z,57.44
2019-03-26T14:50:32.548Z,57.72
2019-03-26T14:53:00.949Z,57.25
2019-03-26T14:55:29.371Z,57.70
2019-03-26T14:57:57.627Z,57.79
2019-03-26T15:00:26.036Z,57.79
2019-03-26T15:02:54.279Z,57.66
2019-03-26T15:05:22.571Z,58.48
2019-03-26T15:07:50.911Z,58.01
2019-03-26T15:10:19.501Z,58.19
2019-03-26T15:12:47.856Z,58.61
2019-03-26T15:15:16.192Z,58.65
2019-03-26T15:17:44.587Z,59.03
2019-03-26T15:20:13.024Z,58.08
2019-03-26T15:22:41.297Z,58.09
2019-03-26T15:25:09.724Z,58.43
2019-03-26T15:27:38.013Z,58.71
2019-03-26T15:30:07.345Z,59.24
2019-03-26T15:32:35.686Z,59.14
2019-03-26T15:35:04.933Z,59.45
2019-03-26T15:37:33.243Z,59.57
2019-03-26T15:40:01.678Z,59.37
2019-03-26T15:42:29.978Z,59.84
2019-03-26T15:44:58.201Z,59.87
2019-03-26T15:47:26.623Z,59.43
2019-03-26T15:49:54.952Z,59.32
2019-03-26T15:52:23.232Z,59.86
2019-03-26T15:54:51.467Z,59.96
2019-03-26T15:57:19.747Z,60.11
2019-03-26T15:59:47.977Z,60.14
2019-03-26T16:02:16.268Z,59.99
2019-03-26T16:04:44.557Z,59.83
2019-03-26T16:07:13.048Z,60.30
2019-03-26T16:09:41.901Z,60.13
2019-03-26T16:12:10.245Z,60.20
2019-03-26T16:14:38.518Z,60.31
2019-03-26T16:17:06.829Z,60.08
2019-03-26T16:19:36.567Z,60.55
2019-03-26T16:22:05.138Z,60.44
2019-03-26T16:24:33.495Z,60.31
2019-03-26T16:27:01.878Z,60.31
2019-03-26T16:29:30.698Z,60.29
2019-03-26T16:31:59.295Z,60.26
2019-03-26T16:34:27.515Z,60.54
2019-03-26T16:36:59.696Z,60.45
2019-03-26T16:39:26.050Z,60.59
2019-03-26T16:41:54.348Z,60.55
2019-03-26T16:44:22.581Z,60.73
2019-03-26T16:46:50.874Z,60.92
2019-03-26T16:49:19.218Z,61.27
2019-03-26T16:51:47.642Z,61.26
2019-03-26T16:54:15.848Z,61.39
2019-03-26T16:56:44.149Z,62.01
2019-03-26T16:59:12.496Z,62.10
2019-03-26T17:01:41.701Z,61.71
2019-03-26T17:04:10.072Z,62.06
2019-03-26T17:06:39.387Z,62.10
2019-03-26T17:09:07.992Z,62.29
2019-03-26T17:11:36.400Z,62.23
2019-03-26T17:14:04.770Z,62.28
2019-03-26T17:16:33.009Z,62.42
2019-03-26T17:19:01.409Z,62.64
2019-03-26T17:21:29.675Z,62.87
2019-03-26T17:23:57.945Z,62.55
2019-03-26T17:26:26.187Z,62.64
2019-03-26T17:28:54.528Z,63.09
2019-03-26T17:31:23.369Z,62.88
2019-03-26T17:33:51.744Z,63.13
2019-03-26T17:36:20.092Z,63.05
2019-03-26T17:38:48.377Z,63.21
2019-03-26T17:41:16.683Z,63.07
2019-03-26T17:43:45.162Z,63.10
2019-03-26T17:46:13.638Z,63.08
2019-03-26T17:48:42.824Z,63.34
2019-03-26T17:51:11.069Z,63.23
2019-03-26T17:53:39.451Z,63.97
2019-03-26T17:56:08.220Z,65.81
2019-03-26T17:58:36.512Z,67.78
2019-03-26T18:01:04.948Z,67.59
2019-03-26T18:03:33.874Z,68.86
2019-03-26T18:06:02.137Z,70.10
2019-03-26T18:08:30.440Z,74.30
2019-03-26T18:10:58.744Z,78.84
2019-03-26T18:13:27.063Z,83.03
2019-03-26T18:15:55.288Z,85.17
2019-03-26T18:18:23.599Z,85.32
2019-03-26T18:20:51.880Z,84.92
2019-03-26T18:23:20.175Z,86.66
2019-03-26T18:25:48.418Z,86.97
2019-03-26T18:28:16.713Z,86.72
2019-03-26T18:30:45.017Z,86.63
2019-03-26T18:33:13.402Z,88.27
2019-03-26T18:35:41.885Z,89.24
2019-03-26T18:38:10.281Z,89.81
2019-03-26T18:40:38.535Z,90.11
2019-03-26T18:43:07.026Z,90.14
2019-03-26T18:45:35.346Z,90.36
2019-03-26T18:48:03.696Z,88.61
2019-03-26T18:50:32.191Z,87.31
2019-03-26T18:53:00.557Z,85.42
2019-03-26T18:55:28.996Z,85.77
2019-03-26T18:57:57.366Z,83.81
2019-03-26T19:00:36.748Z,83.10
2019-03-26T19:03:05.631Z,83.23
2019-03-26T19:05:35.318Z,84.25
2019-03-26T19:08:03.689Z,85.09
2019-03-26T19:10:32.525Z,83.08
2019-03-26T19:13:00.946Z,83.67
2019-03-26T19:15:29.400Z,84.04
2019-03-26T19:17:57.970Z,83.80
2019-03-26T19:20:26.610Z,83.57
2019-03-26T19:22:54.936Z,85.43
2019-03-26T19:25:23.360Z,84.89
2019-03-26T19:27:51.665Z,85.32
2019-03-26T19:30:21.785Z,85.28
2019-03-26T19:32:50.357Z,83.68
2019-03-26T19:35:18.882Z,85.98
2019-03-26T19:37:49.174Z,86.72
2019-03-26T19:40:17.478Z,86.97
2019-03-26T19:42:47.135Z,85.18
2019-03-26T19:45:15.728Z,84.28
2019-03-26T19:47:44.103Z,85.53
2019-03-26T19:50:13.208Z,84.97
2019-03-26T19:52:41.663Z,85.84
2019-03-26T19:55:10.338Z,85.05
2019-03-26T19:57:38.779Z,85.84
2019-03-26T20:00:09.263Z,85.38
2019-03-26T20:02:37.533Z,86.82
2019-03-26T20:05:06.541Z,86.86
2019-03-26T20:07:35.069Z,86.00
2019-03-26T20:10:04.488Z,86.98
2019-03-26T20:12:32.902Z,85.98
2019-03-26T20:15:01.399Z,86.80
2019-03-26T20:17:29.740Z,85.93
2019-03-26T20:19:58.121Z,86.54
2019-03-26T20:22:26.608Z,86.58
2019-03-26T20:24:55.518Z,85.92
2019-03-26T20:27:25.880Z,87.43
2019-03-26T20:29:54.546Z,89.46
2019-03-26T20:32:23.148Z,86.99
2019-03-26T20:34:51.454Z,87.18
2019-03-26T20:37:20.609Z,87.50
2019-03-26T20:39:51.391Z,87.18
2019-03-26T20:42:19.765Z,88.01
2019-03-26T20:44:48.167Z,87.34
2019-03-26T20:47:16.649Z,86.92
2019-03-26T20:49:45.037Z,87.04
2019-03-26T20:52:13.329Z,86.25
2019-03-26T20:54:41.623Z,86.42
2019-03-26T20:57:09.929Z,86.77
2019-03-26T20:59:38.495Z,87.41
2019-03-26T21:02:06.818Z,86.62
2019-03-26T21:04:35.818Z,86.10
2019-03-26T21:07:07.087Z,85.99
2019-03-26T21:09:35.845Z,84.81
2019-03-26T21:12:04.258Z,85.11
2019-03-26T21:14:32.744Z,85.03
2019-03-26T21:17:01.158Z,84.61
2019-03-26T21:19:29.534Z,84.43
2019-03-26T21:21:57.918Z,84.64
2019-03-26T21:27:05.897Z,85.64
2019-03-26T21:29:34.247Z,83.00
2019-03-26T21:32:02.567Z,83.22
2019-03-26T21:34:31.029Z,83.09
2019-03-26T21:36:59.636Z,84.56
2019-03-26T21:39:27.890Z,84.68
2019-03-26T21:41:56.222Z,84.95
2019-03-26T21:44:24.505Z,85.10
2019-03-26T21:46:52.786Z,84.75
2019-03-26T21:49:21.070Z,85.45
2019-03-26T21:51:49.533Z,85.73
2019-03-26T21:54:17.779Z,85.29
2019-03-26T21:56:46.079Z,85.35
2019-03-26T21:59:14.448Z,86.12
2019-03-26T22:01:42.728Z,85.69
2019-03-26T22:04:10.953Z,85.62
2019-03-26T22:06:39.857Z,85.47
2019-03-26T22:09:08.291Z,85.17
2019-03-26T22:11:49.218Z,85.11
2019-03-26T22:14:17.266Z,85.79
2019-03-26T22:16:41.550Z,86.06
2019-03-26T22:19:27.767Z,86.18
2019-03-26T22:21:46.962Z,85.24
2019-03-26T22:24:17.152Z,85.06
2019-03-26T22:26:45.573Z,84.20
2019-03-26T22:29:13.806Z,85.13
2019-03-26T22:31:42.108Z,84.68
2019-03-26T22:34:10.494Z,84.42
2019-03-26T22:36:38.777Z,84.69
2019-03-26T22:39:07.730Z,85.00
2019-03-26T22:41:36.251Z,84.43
2019-03-26T22:44:04.661Z,83.94
2019-03-26T22:46:33.416Z,83.71
2019-03-26T22:49:01.754Z,83.44
2019-03-26T22:51:30.234Z,83.25
2019-03-26T22:53:58.860Z,83.38
2019-03-26T22:56:28.068Z,83.32
2019-03-26T22:58:56.664Z,83.29
2019-03-26T23:01:25.314Z,83.17
2019-03-26T23:03:53.812Z,82.96
2019-03-26T23:06:22.553Z,82.57
2019-03-26T23:08:51.119Z,82.71
2019-03-26T23:11:20.046Z,82.86
2019-03-26T23:13:48.925Z,82.77
2019-03-26T23:16:17.391Z,83.00
2019-03-26T23:18:45.859Z,82.79
2019-03-26T23:21:14.313Z,82.64
2019-03-26T23:23:42.848Z,82.39
2019-03-26T23:26:11.488Z,82.37
2019-03-26T23:28:40.576Z,82.37
2019-03-26T23:31:09.131Z,82.33
2019-03-26T23:33:37.682Z,82.31
2019-03-26T23:36:06.153Z,82.17
2019-03-26T23:38:34.651Z,82.14
2019-03-26T23:41:03.265Z,82.05
2019-03-26T23:43:31.772Z,81.97
2019-03-26T23:46:00.274Z,81.86
2019-03-26T23:48:28.851Z,81.82
2019-03-26T23:50:57.574Z,81.66
2019-03-26T23:53:26.200Z,81.16
2019-03-26T23:55:54.739Z,81.10
2019-03-26T23:58:23.290Z,81.12
